This is the latest recevied weather packets stored in our database for station/object AH6GR. If no packets are shown the sender has not sent any weather packets the latest 10 day(s).
| Time | Temp. | Humidity | Pressure | Rain* | Wind** | Luminosity | Snow |
|---|---|---|---|---|---|---|---|
| 1777657225 | 22.22° C | 80% | 1018.1 hPa | 0 mm | - | - | - |
| 1777656625 | 22.22° C | 79% | 1018.1 hPa | 0 mm | - | - | - |
| 1777656616 | 21.67° C | 79% | 1017.4 hPa | 0 mm | - | - | - |
| 1777656024 | 21.67° C | 84% | 1018 hPa | 0 mm | - | - | - |
| 1777655751 | 21.67° C | 85% | 1017.2 hPa | 0 mm | - | - | - |
| 1777655424 | 21.67° C | 84% | 1017.8 hPa | 0 mm | - | - | - |
| 1777654837 | 21.11° C | 82% | 1017 hPa | 0 mm | - | - | - |
| 1777654825 | 21.67° C | 82% | 1017.7 hPa | 0 mm | - | - | - |
| 1777654224 | 21.67° C | 80% | 1017.7 hPa | 0 mm | - | - | - |
| 1777653918 | 21.11° C | 80% | 1016.7 hPa | 0 mm | - | - | - |
| 1777653624 | 21.11° C | 80% | 1017.6 hPa | 0 mm | - | - | - |
| 1777653064 | 20.56° C | 82% | 1016.7 hPa | 0 mm | - | - | - |
| 1777653024 | 21.11° C | 82% | 1017.5 hPa | 0 mm | - | - | - |
| 1777652424 | 20.56° C | 84% | 1017.4 hPa | 0 mm | - | - | - |
| 1777652154 | 20.56° C | 84% | 1016.6 hPa | 0 mm | - | - | - |
| 1777651824 | 20.56° C | 84% | 1017.4 hPa | 0 mm | - | - | - |
| 1777651224 | 20.56° C | 83% | 1017.3 hPa | 0 mm | - | - | - |
| 1777651223 | 20.56° C | 83% | 1016.6 hPa | 0 mm | - | - | - |
| 1777650624 | 20.56° C | 83% | 1017.3 hPa | 0 mm | - | - | - |
| 1777650304 | 20.56° C | 84% | 1016.5 hPa | 0 mm | - | - | - |
| 1777650024 | 20.56° C | 84% | 1017.3 hPa | 0 mm | - | - | - |
| 1777649466 | 20.56° C | 84% | 1016.5 hPa | 0 mm | - | - | - |
| 1777649424 | 21.11° C | 84% | 1017.3 hPa | 0 mm | - | - | - |
| 1777648824 | 21.11° C | 84% | 1017.3 hPa | 0 mm | - | - | - |
| 1777648548 | 20.56° C | 84% | 1016.4 hPa | 0 mm | - | - | - |
* Rain latest hour (hover to see other rain measurements)
** Current wind speed in m/s (hover to see current wind gust speed)